sensor_id;sensor_type;location;lat;lon;timestamp;P1;durP1;ratioP1;P2;durP2;ratioP2
70705;SDS011;59320;52.316;10.870;2023-04-10T00:00:32;39.22;;;23.80;;
70705;SDS011;59320;52.316;10.870;2023-04-10T00:03:01;39.40;;;24.00;;
70705;SDS011;59320;52.316;10.870;2023-04-10T00:05:28;40.55;;;24.63;;
70705;SDS011;59320;52.316;10.870;2023-04-10T00:07:55;34.58;;;22.40;;
70705;SDS011;59320;52.316;10.870;2023-04-10T00:10:22;39.03;;;24.10;;
70705;SDS011;59320;52.316;10.870;2023-04-10T00:12:50;39.78;;;23.85;;
70705;SDS011;59320;52.316;10.870;2023-04-10T00:15:18;40.70;;;24.40;;
70705;SDS011;59320;52.316;10.870;2023-04-10T00:17:45;38.85;;;24.38;;
70705;SDS011;59320;52.316;10.870;2023-04-10T00:20:16;38.47;;;22.23;;
70705;SDS011;59320;52.316;10.870;2023-04-10T00:22:44;36.50;;;22.75;;
70705;SDS011;59320;52.316;10.870;2023-04-10T00:25:11;33.88;;;22.42;;
70705;SDS011;59320;52.316;10.870;2023-04-10T00:27:38;35.13;;;21.70;;
70705;SDS011;59320;52.316;10.870;2023-04-10T00:30:06;35.70;;;22.02;;
70705;SDS011;59320;52.316;10.870;2023-04-10T00:32:33;32.08;;;21.27;;
70705;SDS011;59320;52.316;10.870;2023-04-10T00:35:01;35.85;;;22.05;;
70705;SDS011;59320;52.316;10.870;2023-04-10T00:37:29;35.95;;;22.65;;
70705;SDS011;59320;52.316;10.870;2023-04-10T00:39:56;35.63;;;22.10;;
70705;SDS011;59320;52.316;10.870;2023-04-10T00:42:27;36.78;;;22.70;;
70705;SDS011;59320;52.316;10.870;2023-04-10T00:44:54;35.33;;;22.45;;
70705;SDS011;59320;52.316;10.870;2023-04-10T00:47:22;40.30;;;24.77;;
70705;SDS011;59320;52.316;10.870;2023-04-10T00:49:49;34.25;;;21.35;;
70705;SDS011;59320;52.316;10.870;2023-04-10T00:52:16;37.03;;;23.00;;
70705;SDS011;59320;52.316;10.870;2023-04-10T00:54:45;36.72;;;22.88;;
70705;SDS011;59320;52.316;10.870;2023-04-10T00:57:12;36.00;;;22.70;;
70705;SDS011;59320;52.316;10.870;2023-04-10T00:59:40;35.55;;;21.98;;
70705;SDS011;59320;52.316;10.870;2023-04-10T01:02:08;34.30;;;22.58;;
70705;SDS011;59320;52.316;10.870;2023-04-10T01:04:37;36.10;;;22.20;;
70705;SDS011;59320;52.316;10.870;2023-04-10T01:07:07;37.13;;;23.00;;
70705;SDS011;59320;52.316;10.870;2023-04-10T01:09:46;36.63;;;22.88;;
70705;SDS011;59320;52.316;10.870;2023-04-10T01:12:23;35.17;;;22.55;;
70705;SDS011;59320;52.316;10.870;2023-04-10T01:15:03;38.33;;;22.58;;
70705;SDS011;59320;52.316;10.870;2023-04-10T01:17:38;36.88;;;21.73;;
70705;SDS011;59320;52.316;10.870;2023-04-10T01:20:11;37.45;;;23.27;;
70705;SDS011;59320;52.316;10.870;2023-04-10T01:22:45;36.90;;;21.65;;
70705;SDS011;59320;52.316;10.870;2023-04-10T01:25:33;37.95;;;22.08;;
70705;SDS011;59320;52.316;10.870;2023-04-10T01:28:13;36.17;;;22.27;;
70705;SDS011;59320;52.316;10.870;2023-04-10T01:31:01;38.95;;;22.90;;
70705;SDS011;59320;52.316;10.870;2023-04-10T01:33:35;38.60;;;23.13;;
70705;SDS011;59320;52.316;10.870;2023-04-10T01:36:06;35.55;;;22.52;;
70705;SDS011;59320;52.316;10.870;2023-04-10T01:38:35;36.28;;;21.45;;
70705;SDS011;59320;52.316;10.870;2023-04-10T01:41:08;34.10;;;21.83;;
70705;SDS011;59320;52.316;10.870;2023-04-10T01:43:35;39.22;;;24.05;;
70705;SDS011;59320;52.316;10.870;2023-04-10T01:46:07;36.13;;;23.23;;
70705;SDS011;59320;52.316;10.870;2023-04-10T01:48:35;41.70;;;25.30;;
70705;SDS011;59320;52.316;10.870;2023-04-10T01:51:03;44.15;;;25.55;;
70705;SDS011;59320;52.316;10.870;2023-04-10T01:53:31;43.25;;;24.30;;
70705;SDS011;59320;52.316;10.870;2023-04-10T01:56:01;42.92;;;24.98;;
70705;SDS011;59320;52.316;10.870;2023-04-10T01:58:32;43.42;;;25.90;;
70705;SDS011;59320;52.316;10.870;2023-04-10T02:01:01;41.45;;;23.92;;
70705;SDS011;59320;52.316;10.870;2023-04-10T02:03:30;40.92;;;24.08;;
70705;SDS011;59320;52.316;10.870;2023-04-10T02:06:00;40.45;;;23.25;;
70705;SDS011;59320;52.316;10.870;2023-04-10T02:08:36;40.35;;;23.88;;
70705;SDS011;59320;52.316;10.870;2023-04-10T02:11:08;36.53;;;23.45;;
70705;SDS011;59320;52.316;10.870;2023-04-10T02:13:38;39.70;;;23.23;;
70705;SDS011;59320;52.316;10.870;2023-04-10T02:16:07;37.30;;;22.92;;
70705;SDS011;59320;52.316;10.870;2023-04-10T02:18:39;38.83;;;22.90;;
70705;SDS011;59320;52.316;10.870;2023-04-10T02:21:07;38.53;;;23.65;;
70705;SDS011;59320;52.316;10.870;2023-04-10T02:23:35;39.90;;;23.13;;
70705;SDS011;59320;52.316;10.870;2023-04-10T02:26:06;38.47;;;23.65;;
70705;SDS011;59320;52.316;10.870;2023-04-10T02:28:36;34.35;;;21.95;;
70705;SDS011;59320;52.316;10.870;2023-04-10T02:31:05;39.45;;;22.35;;
70705;SDS011;59320;52.316;10.870;2023-04-10T02:33:33;36.17;;;22.15;;
70705;SDS011;59320;52.316;10.870;2023-04-10T02:36:01;35.65;;;22.33;;
70705;SDS011;59320;52.316;10.870;2023-04-10T02:38:28;36.05;;;22.05;;
70705;SDS011;59320;52.316;10.870;2023-04-10T02:40:59;35.75;;;22.27;;
70705;SDS011;59320;52.316;10.870;2023-04-10T02:43:26;36.72;;;22.17;;
70705;SDS011;59320;52.316;10.870;2023-04-10T02:45:54;35.00;;;20.67;;
70705;SDS011;59320;52.316;10.870;2023-04-10T02:48:25;38.63;;;22.98;;
70705;SDS011;59320;52.316;10.870;2023-04-10T02:50:57;36.00;;;22.00;;
70705;SDS011;59320;52.316;10.870;2023-04-10T02:53:28;35.22;;;20.85;;
70705;SDS011;59320;52.316;10.870;2023-04-10T02:55:59;37.70;;;22.40;;
70705;SDS011;59320;52.316;10.870;2023-04-10T02:58:27;38.13;;;23.10;;
70705;SDS011;59320;52.316;10.870;2023-04-10T03:00:56;38.45;;;24.00;;
70705;SDS011;59320;52.316;10.870;2023-04-10T03:03:43;39.08;;;23.08;;
70705;SDS011;59320;52.316;10.870;2023-04-10T03:06:18;35.60;;;21.83;;
70705;SDS011;59320;52.316;10.870;2023-04-10T03:08:50;35.88;;;21.92;;
70705;SDS011;59320;52.316;10.870;2023-04-10T03:11:18;40.17;;;23.45;;
70705;SDS011;59320;52.316;10.870;2023-04-10T03:13:46;38.58;;;22.80;;
70705;SDS011;59320;52.316;10.870;2023-04-10T03:16:15;44.10;;;23.90;;
70705;SDS011;59320;52.316;10.870;2023-04-10T03:18:42;36.10;;;23.10;;
70705;SDS011;59320;52.316;10.870;2023-04-10T03:21:10;36.55;;;22.20;;
70705;SDS011;59320;52.316;10.870;2023-04-10T03:23:37;41.47;;;23.52;;
70705;SDS011;59320;52.316;10.870;2023-04-10T03:26:06;40.83;;;23.92;;
70705;SDS011;59320;52.316;10.870;2023-04-10T03:28:36;39.97;;;23.52;;
70705;SDS011;59320;52.316;10.870;2023-04-10T03:31:05;39.58;;;24.10;;
70705;SDS011;59320;52.316;10.870;2023-04-10T03:33:34;39.92;;;24.42;;
70705;SDS011;59320;52.316;10.870;2023-04-10T03:36:02;44.63;;;24.00;;
70705;SDS011;59320;52.316;10.870;2023-04-10T03:38:32;40.10;;;23.42;;
70705;SDS011;59320;52.316;10.870;2023-04-10T03:41:00;41.85;;;24.67;;
70705;SDS011;59320;52.316;10.870;2023-04-10T03:43:31;43.33;;;24.38;;
70705;SDS011;59320;52.316;10.870;2023-04-10T03:46:00;42.17;;;24.98;;
70705;SDS011;59320;52.316;10.870;2023-04-10T03:48:29;44.50;;;24.45;;
70705;SDS011;59320;52.316;10.870;2023-04-10T03:50:57;44.60;;;23.77;;
70705;SDS011;59320;52.316;10.870;2023-04-10T03:53:24;43.50;;;23.73;;
70705;SDS011;59320;52.316;10.870;2023-04-10T03:55:53;42.63;;;22.77;;
70705;SDS011;59320;52.316;10.870;2023-04-10T03:58:21;38.75;;;22.52;;
70705;SDS011;59320;52.316;10.870;2023-04-10T04:00:51;39.78;;;22.73;;
70705;SDS011;59320;52.316;10.870;2023-04-10T04:03:27;38.15;;;22.17;;
70705;SDS011;59320;52.316;10.870;2023-04-10T04:05:57;33.58;;;20.45;;
70705;SDS011;59320;52.316;10.870;2023-04-10T04:09:00;36.35;;;22.33;;
70705;SDS011;59320;52.316;10.870;2023-04-10T04:11:42;31.50;;;19.30;;
70705;SDS011;59320;52.316;10.870;2023-04-10T04:14:27;34.85;;;21.25;;
70705;SDS011;59320;52.316;10.870;2023-04-10T04:17:19;35.47;;;21.75;;
70705;SDS011;59320;52.316;10.870;2023-04-10T04:20:05;35.95;;;22.17;;
70705;SDS011;59320;52.316;10.870;2023-04-10T04:22:42;37.72;;;21.92;;
70705;SDS011;59320;52.316;10.870;2023-04-10T04:25:21;33.63;;;21.17;;
70705;SDS011;59320;52.316;10.870;2023-04-10T04:27:51;34.08;;;21.20;;
70705;SDS011;59320;52.316;10.870;2023-04-10T04:30:31;38.35;;;22.50;;
70705;SDS011;59320;52.316;10.870;2023-04-10T04:33:18;36.40;;;21.42;;
70705;SDS011;59320;52.316;10.870;2023-04-10T04:36:07;39.17;;;22.02;;
70705;SDS011;59320;52.316;10.870;2023-04-10T04:38:52;36.15;;;22.58;;
70705;SDS011;59320;52.316;10.870;2023-04-10T04:41:36;34.78;;;22.10;;
70705;SDS011;59320;52.316;10.870;2023-04-10T04:44:22;32.50;;;20.15;;
70705;SDS011;59320;52.316;10.870;2023-04-10T04:47:25;36.80;;;21.83;;
70705;SDS011;59320;52.316;10.870;2023-04-10T04:50:15;33.67;;;20.15;;
70705;SDS011;59320;52.316;10.870;2023-04-10T04:53:01;34.22;;;20.80;;
70705;SDS011;59320;52.316;10.870;2023-04-10T04:55:46;35.13;;;21.65;;
70705;SDS011;59320;52.316;10.870;2023-04-10T04:58:34;36.90;;;22.15;;
70705;SDS011;59320;52.316;10.870;2023-04-10T05:01:15;34.28;;;21.25;;
70705;SDS011;59320;52.316;10.870;2023-04-10T05:04:09;33.50;;;20.90;;
70705;SDS011;59320;52.316;10.870;2023-04-10T05:07:09;36.13;;;21.25;;
70705;SDS011;59320;52.316;10.870;2023-04-10T05:09:53;32.40;;;19.48;;
70705;SDS011;59320;52.316;10.870;2023-04-10T05:12:45;37.35;;;21.13;;
70705;SDS011;59320;52.316;10.870;2023-04-10T05:15:34;35.25;;;21.75;;
70705;SDS011;59320;52.316;10.870;2023-04-10T05:18:19;38.00;;;21.75;;
70705;SDS011;59320;52.316;10.870;2023-04-10T05:21:20;35.38;;;21.05;;
70705;SDS011;59320;52.316;10.870;2023-04-10T05:24:03;31.58;;;20.17;;
70705;SDS011;59320;52.316;10.870;2023-04-10T05:26:43;33.55;;;20.90;;
70705;SDS011;59320;52.316;10.870;2023-04-10T05:29:23;36.13;;;21.92;;
70705;SDS011;59320;52.316;10.870;2023-04-10T05:32:10;36.00;;;21.13;;
70705;SDS011;59320;52.316;10.870;2023-04-10T05:34:58;32.42;;;19.98;;
70705;SDS011;59320;52.316;10.870;2023-04-10T05:37:38;32.75;;;20.83;;
70705;SDS011;59320;52.316;10.870;2023-04-10T05:40:24;37.65;;;22.05;;
70705;SDS011;59320;52.316;10.870;2023-04-10T05:43:00;35.17;;;21.88;;
70705;SDS011;59320;52.316;10.870;2023-04-10T05:45:45;35.88;;;21.83;;
70705;SDS011;59320;52.316;10.870;2023-04-10T05:48:38;38.15;;;22.98;;
70705;SDS011;59320;52.316;10.870;2023-04-10T05:51:20;41.88;;;22.42;;
70705;SDS011;59320;52.316;10.870;2023-04-10T05:54:10;38.05;;;23.13;;
70705;SDS011;59320;52.316;10.870;2023-04-10T05:57:08;40.33;;;24.27;;
70705;SDS011;59320;52.316;10.870;2023-04-10T05:59:41;37.90;;;22.13;;
70705;SDS011;59320;52.316;10.870;2023-04-10T06:02:44;38.72;;;23.15;;
70705;SDS011;59320;52.316;10.870;2023-04-10T06:05:20;35.78;;;22.38;;
70705;SDS011;59320;52.316;10.870;2023-04-10T06:07:56;36.67;;;23.55;;
70705;SDS011;59320;52.316;10.870;2023-04-10T06:10:23;38.50;;;23.05;;
70705;SDS011;59320;52.316;10.870;2023-04-10T06:12:53;39.28;;;24.27;;
70705;SDS011;59320;52.316;10.870;2023-04-10T06:15:22;33.75;;;21.63;;
70705;SDS011;59320;52.316;10.870;2023-04-10T06:17:49;32.97;;;22.10;;
70705;SDS011;59320;52.316;10.870;2023-04-10T06:20:18;31.60;;;21.40;;
70705;SDS011;59320;52.316;10.870;2023-04-10T06:22:45;33.92;;;21.95;;
70705;SDS011;59320;52.316;10.870;2023-04-10T06:25:13;31.70;;;21.85;;
70705;SDS011;59320;52.316;10.870;2023-04-10T06:27:40;33.33;;;21.45;;
70705;SDS011;59320;52.316;10.870;2023-04-10T06:30:10;31.13;;;21.02;;
70705;SDS011;59320;52.316;10.870;2023-04-10T06:32:38;32.13;;;20.98;;
70705;SDS011;59320;52.316;10.870;2023-04-10T06:35:05;30.58;;;20.25;;
70705;SDS011;59320;52.316;10.870;2023-04-10T06:37:33;29.65;;;19.80;;
70705;SDS011;59320;52.316;10.870;2023-04-10T06:40:03;27.67;;;19.23;;
70705;SDS011;59320;52.316;10.870;2023-04-10T06:42:31;28.80;;;19.75;;
70705;SDS011;59320;52.316;10.870;2023-04-10T06:45:06;28.75;;;19.73;;
70705;SDS011;59320;52.316;10.870;2023-04-10T06:47:35;27.17;;;19.13;;
70705;SDS011;59320;52.316;10.870;2023-04-10T06:50:02;27.85;;;19.45;;
70705;SDS011;59320;52.316;10.870;2023-04-10T06:52:30;27.90;;;19.05;;
70705;SDS011;59320;52.316;10.870;2023-04-10T06:55:10;25.80;;;17.83;;
70705;SDS011;59320;52.316;10.870;2023-04-10T06:57:38;24.38;;;18.52;;
70705;SDS011;59320;52.316;10.870;2023-04-10T07:00:05;23.80;;;17.67;;
70705;SDS011;59320;52.316;10.870;2023-04-10T07:02:39;24.50;;;17.08;;
70705;SDS011;59320;52.316;10.870;2023-04-10T07:05:10;24.02;;;17.60;;
70705;SDS011;59320;52.316;10.870;2023-04-10T07:08:11;23.10;;;16.85;;
70705;SDS011;59320;52.316;10.870;2023-04-10T07:10:48;22.38;;;16.08;;
70705;SDS011;59320;52.316;10.870;2023-04-10T07:13:17;23.00;;;16.38;;
70705;SDS011;59320;52.316;10.870;2023-04-10T07:15:46;22.23;;;16.00;;
70705;SDS011;59320;52.316;10.870;2023-04-10T07:18:18;20.65;;;15.13;;
70705;SDS011;59320;52.316;10.870;2023-04-10T07:21:01;21.83;;;15.80;;
70705;SDS011;59320;52.316;10.870;2023-04-10T07:23:41;21.60;;;15.73;;
70705;SDS011;59320;52.316;10.870;2023-04-10T07:26:12;22.73;;;14.93;;
70705;SDS011;59320;52.316;10.870;2023-04-10T07:28:43;20.00;;;14.70;;
70705;SDS011;59320;52.316;10.870;2023-04-10T07:31:15;18.17;;;13.60;;
70705;SDS011;59320;52.316;10.870;2023-04-10T07:36:42;17.45;;;13.20;;
70705;SDS011;59320;52.316;10.870;2023-04-10T07:39:14;18.23;;;14.13;;
70705;SDS011;59320;52.316;10.870;2023-04-10T07:41:52;17.58;;;12.68;;
70705;SDS011;59320;52.316;10.870;2023-04-10T07:44:43;18.92;;;14.32;;
70705;SDS011;59320;52.316;10.870;2023-04-10T07:47:13;17.75;;;13.52;;
70705;SDS011;59320;52.316;10.870;2023-04-10T07:49:56;18.25;;;13.20;;
70705;SDS011;59320;52.316;10.870;2023-04-10T07:52:30;18.00;;;12.88;;
70705;SDS011;59320;52.316;10.870;2023-04-10T07:54:59;16.58;;;13.18;;
70705;SDS011;59320;52.316;10.870;2023-04-10T07:57:27;18.42;;;14.05;;
70705;SDS011;59320;52.316;10.870;2023-04-10T07:59:59;18.65;;;14.20;;
70705;SDS011;59320;52.316;10.870;2023-04-10T08:02:38;24.30;;;15.80;;
70705;SDS011;59320;52.316;10.870;2023-04-10T08:05:07;18.67;;;14.30;;
70705;SDS011;59320;52.316;10.870;2023-04-10T08:07:42;19.55;;;15.15;;
70705;SDS011;59320;52.316;10.870;2023-04-10T08:10:12;23.45;;;15.73;;
70705;SDS011;59320;52.316;10.870;2023-04-10T08:12:39;21.85;;;16.40;;
70705;SDS011;59320;52.316;10.870;2023-04-10T08:15:07;23.13;;;15.93;;
70705;SDS011;59320;52.316;10.870;2023-04-10T08:17:35;21.85;;;16.30;;
70705;SDS011;59320;52.316;10.870;2023-04-10T08:20:08;20.23;;;15.63;;
70705;SDS011;59320;52.316;10.870;2023-04-10T08:22:35;21.73;;;15.63;;
70705;SDS011;59320;52.316;10.870;2023-04-10T08:25:04;21.88;;;16.08;;
70705;SDS011;59320;52.316;10.870;2023-04-10T08:27:32;21.52;;;16.05;;
70705;SDS011;59320;52.316;10.870;2023-04-10T08:30:02;22.48;;;16.60;;
70705;SDS011;59320;52.316;10.870;2023-04-10T08:32:32;23.63;;;15.40;;
70705;SDS011;59320;52.316;10.870;2023-04-10T08:34:59;21.58;;;15.43;;
70705;SDS011;59320;52.316;10.870;2023-04-10T08:37:29;25.30;;;15.73;;
70705;SDS011;59320;52.316;10.870;2023-04-10T08:39:59;20.90;;;14.73;;
70705;SDS011;59320;52.316;10.870;2023-04-10T08:42:26;22.95;;;15.48;;
70705;SDS011;59320;52.316;10.870;2023-04-10T08:44:53;20.08;;;14.75;;
70705;SDS011;59320;52.316;10.870;2023-04-10T08:47:24;20.30;;;15.00;;
70705;SDS011;59320;52.316;10.870;2023-04-10T08:49:56;19.50;;;14.18;;
70705;SDS011;59320;52.316;10.870;2023-04-10T08:52:29;23.17;;;15.80;;
70705;SDS011;59320;52.316;10.870;2023-04-10T08:55:04;21.95;;;15.00;;
70705;SDS011;59320;52.316;10.870;2023-04-10T08:57:35;22.80;;;14.55;;
70705;SDS011;59320;52.316;10.870;2023-04-10T09:00:06;29.27;;;15.85;;
70705;SDS011;59320;52.316;10.870;2023-04-10T09:02:36;20.42;;;14.63;;
70705;SDS011;59320;52.316;10.870;2023-04-10T09:05:09;28.98;;;14.98;;
70705;SDS011;59320;52.316;10.870;2023-04-10T09:07:41;24.23;;;15.18;;
70705;SDS011;59320;52.316;10.870;2023-04-10T09:10:14;23.40;;;14.57;;
70705;SDS011;59320;52.316;10.870;2023-04-10T09:12:42;23.75;;;14.80;;
70705;SDS011;59320;52.316;10.870;2023-04-10T09:15:13;20.98;;;15.32;;
70705;SDS011;59320;52.316;10.870;2023-04-10T09:17:53;19.25;;;14.65;;
70705;SDS011;59320;52.316;10.870;2023-04-10T09:20:22;21.55;;;15.05;;
70705;SDS011;59320;52.316;10.870;2023-04-10T09:22:53;27.45;;;16.38;;
70705;SDS011;59320;52.316;10.870;2023-04-10T09:25:30;19.10;;;14.97;;
70705;SDS011;59320;52.316;10.870;2023-04-10T09:28:03;26.70;;;15.35;;
70705;SDS011;59320;52.316;10.870;2023-04-10T09:30:32;24.88;;;15.35;;
70705;SDS011;59320;52.316;10.870;2023-04-10T09:33:00;19.58;;;14.82;;
70705;SDS011;59320;52.316;10.870;2023-04-10T09:35:34;25.63;;;15.82;;
70705;SDS011;59320;52.316;10.870;2023-04-10T09:38:15;26.35;;;16.05;;
70705;SDS011;59320;52.316;10.870;2023-04-10T09:40:44;28.45;;;17.33;;
70705;SDS011;59320;52.316;10.870;2023-04-10T09:43:16;20.13;;;15.38;;
70705;SDS011;59320;52.316;10.870;2023-04-10T09:45:48;23.80;;;15.02;;
70705;SDS011;59320;52.316;10.870;2023-04-10T09:48:17;22.27;;;16.42;;
70705;SDS011;59320;52.316;10.870;2023-04-10T09:50:45;22.45;;;16.42;;
70705;SDS011;59320;52.316;10.870;2023-04-10T09:53:13;23.50;;;15.48;;
70705;SDS011;59320;52.316;10.870;2023-04-10T09:55:47;22.88;;;15.93;;
70705;SDS011;59320;52.316;10.870;2023-04-10T09:58:16;18.98;;;14.93;;
70705;SDS011;59320;52.316;10.870;2023-04-10T10:00:44;18.25;;;14.65;;
70705;SDS011;59320;52.316;10.870;2023-04-10T10:03:13;18.65;;;14.10;;
70705;SDS011;59320;52.316;10.870;2023-04-10T10:05:41;19.73;;;14.90;;
70705;SDS011;59320;52.316;10.870;2023-04-10T10:08:10;20.05;;;15.23;;
70705;SDS011;59320;52.316;10.870;2023-04-10T10:10:43;27.08;;;15.05;;
70705;SDS011;59320;52.316;10.870;2023-04-10T10:13:16;23.45;;;14.05;;
70705;SDS011;59320;52.316;10.870;2023-04-10T10:15:53;19.73;;;13.13;;
70705;SDS011;59320;52.316;10.870;2023-04-10T10:18:32;15.23;;;12.93;;
70705;SDS011;59320;52.316;10.870;2023-04-10T10:21:03;15.40;;;12.50;;
70705;SDS011;59320;52.316;10.870;2023-04-10T10:23:32;17.17;;;13.30;;
70705;SDS011;59320;52.316;10.870;2023-04-10T10:26:02;14.98;;;12.40;;
70705;SDS011;59320;52.316;10.870;2023-04-10T10:28:31;21.80;;;13.00;;
70705;SDS011;59320;52.316;10.870;2023-04-10T10:30:59;15.25;;;11.38;;
70705;SDS011;59320;52.316;10.870;2023-04-10T10:33:28;15.02;;;12.32;;
70705;SDS011;59320;52.316;10.870;2023-04-10T10:35:57;16.45;;;12.45;;
70705;SDS011;59320;52.316;10.870;2023-04-10T10:38:28;17.83;;;13.40;;
70705;SDS011;59320;52.316;10.870;2023-04-10T10:40:59;14.90;;;12.55;;
70705;SDS011;59320;52.316;10.870;2023-04-10T10:43:46;17.15;;;12.32;;
70705;SDS011;59320;52.316;10.870;2023-04-10T10:46:35;15.48;;;11.32;;
70705;SDS011;59320;52.316;10.870;2023-04-10T10:49:07;22.58;;;12.70;;
70705;SDS011;59320;52.316;10.870;2023-04-10T10:51:44;19.77;;;12.30;;
70705;SDS011;59320;52.316;10.870;2023-04-10T10:54:29;18.13;;;13.07;;
70705;SDS011;59320;52.316;10.870;2023-04-10T10:56:58;18.27;;;13.40;;
70705;SDS011;59320;52.316;10.870;2023-04-10T11:02:27;18.98;;;14.20;;
70705;SDS011;59320;52.316;10.870;2023-04-10T11:04:54;25.05;;;13.63;;
70705;SDS011;59320;52.316;10.870;2023-04-10T11:07:21;18.65;;;14.40;;
70705;SDS011;59320;52.316;10.870;2023-04-10T11:13:27;19.60;;;15.30;;
70705;SDS011;59320;52.316;10.870;2023-04-10T11:15:55;21.05;;;14.60;;
70705;SDS011;59320;52.316;10.870;2023-04-10T11:21:22;16.90;;;12.80;;
70705;SDS011;59320;52.316;10.870;2023-04-10T11:24:02;16.67;;;13.03;;
70705;SDS011;59320;52.316;10.870;2023-04-10T11:26:37;18.60;;;12.10;;
70705;SDS011;59320;52.316;10.870;2023-04-10T11:32:02;14.88;;;11.65;;
70705;SDS011;59320;52.316;10.870;2023-04-10T11:34:30;13.07;;;10.63;;
70705;SDS011;59320;52.316;10.870;2023-04-10T11:36:58;12.27;;;10.60;;
70705;SDS011;59320;52.316;10.870;2023-04-10T11:39:28;11.93;;;9.20;;
70705;SDS011;59320;52.316;10.870;2023-04-10T11:41:56;9.10;;;7.57;;
70705;SDS011;59320;52.316;10.870;2023-04-10T11:44:28;12.80;;;7.75;;
70705;SDS011;59320;52.316;10.870;2023-04-10T11:46:58;11.67;;;7.20;;
70705;SDS011;59320;52.316;10.870;2023-04-10T11:49:26;9.00;;;6.78;;
70705;SDS011;59320;52.316;10.870;2023-04-10T11:51:55;23.75;;;7.22;;
70705;SDS011;59320;52.316;10.870;2023-04-10T11:54:23;7.95;;;6.63;;
70705;SDS011;59320;52.316;10.870;2023-04-10T11:56:56;14.43;;;7.53;;
70705;SDS011;59320;52.316;10.870;2023-04-10T11:59:25;9.90;;;6.22;;
70705;SDS011;59320;52.316;10.870;2023-04-10T12:01:53;8.82;;;6.65;;
70705;SDS011;59320;52.316;10.870;2023-04-10T12:04:30;8.15;;;6.35;;
70705;SDS011;59320;52.316;10.870;2023-04-10T12:06:57;7.05;;;6.32;;
70705;SDS011;59320;52.316;10.870;2023-04-10T12:09:24;6.75;;;5.90;;
70705;SDS011;59320;52.316;10.870;2023-04-10T12:11:52;6.65;;;5.97;;
70705;SDS011;59320;52.316;10.870;2023-04-10T12:14:20;7.05;;;6.35;;
70705;SDS011;59320;52.316;10.870;2023-04-10T12:16:48;7.00;;;5.40;;
70705;SDS011;59320;52.316;10.870;2023-04-10T12:19:18;7.43;;;5.68;;
70705;SDS011;59320;52.316;10.870;2023-04-10T12:21:48;7.97;;;6.30;;
70705;SDS011;59320;52.316;10.870;2023-04-10T12:27:13;8.80;;;6.05;;
70705;SDS011;59320;52.316;10.870;2023-04-10T12:29:43;8.68;;;6.47;;
70705;SDS011;59320;52.316;10.870;2023-04-10T12:32:10;8.40;;;6.70;;
70705;SDS011;59320;52.316;10.870;2023-04-10T12:34:39;8.40;;;6.20;;
70705;SDS011;59320;52.316;10.870;2023-04-10T12:37:07;8.60;;;6.68;;
70705;SDS011;59320;52.316;10.870;2023-04-10T12:39:36;8.70;;;7.20;;
70705;SDS011;59320;52.316;10.870;2023-04-10T12:42:09;9.07;;;6.65;;
70705;SDS011;59320;52.316;10.870;2023-04-10T12:44:48;9.18;;;6.28;;
70705;SDS011;59320;52.316;10.870;2023-04-10T12:47:16;7.28;;;6.15;;
70705;SDS011;59320;52.316;10.870;2023-04-10T12:52:29;8.77;;;6.38;;
70705;SDS011;59320;52.316;10.870;2023-04-10T12:55:06;7.32;;;6.35;;
70705;SDS011;59320;52.316;10.870;2023-04-10T12:57:37;8.90;;;6.68;;
70705;SDS011;59320;52.316;10.870;2023-04-10T13:00:06;8.18;;;6.90;;
70705;SDS011;59320;52.316;10.870;2023-04-10T13:02:36;9.68;;;7.90;;
70705;SDS011;59320;52.316;10.870;2023-04-10T13:05:06;14.45;;;7.93;;
70705;SDS011;59320;52.316;10.870;2023-04-10T13:07:35;9.80;;;8.13;;
70705;SDS011;59320;52.316;10.870;2023-04-10T13:10:03;9.27;;;7.28;;
70705;SDS011;59320;52.316;10.870;2023-04-10T13:12:33;8.90;;;7.25;;
70705;SDS011;59320;52.316;10.870;2023-04-10T13:15:02;9.70;;;7.05;;
70705;SDS011;59320;52.316;10.870;2023-04-10T13:17:29;11.52;;;6.07;;
70705;SDS011;59320;52.316;10.870;2023-04-10T13:19:58;8.00;;;6.35;;
70705;SDS011;59320;52.316;10.870;2023-04-10T13:22:26;11.30;;;6.88;;
70705;SDS011;59320;52.316;10.870;2023-04-10T13:24:54;7.63;;;6.60;;
70705;SDS011;59320;52.316;10.870;2023-04-10T13:27:21;8.63;;;6.32;;
70705;SDS011;59320;52.316;10.870;2023-04-10T13:29:49;7.60;;;6.28;;
70705;SDS011;59320;52.316;10.870;2023-04-10T13:32:16;9.15;;;6.78;;
70705;SDS011;59320;52.316;10.870;2023-04-10T13:34:43;8.07;;;6.75;;
70705;SDS011;59320;52.316;10.870;2023-04-10T13:37:11;7.88;;;6.22;;
70705;SDS011;59320;52.316;10.870;2023-04-10T13:39:42;6.82;;;5.70;;
70705;SDS011;59320;52.316;10.870;2023-04-10T13:42:09;6.10;;;5.15;;
70705;SDS011;59320;52.316;10.870;2023-04-10T13:44:36;6.43;;;4.75;;
70705;SDS011;59320;52.316;10.870;2023-04-10T13:47:03;5.75;;;4.57;;
70705;SDS011;59320;52.316;10.870;2023-04-10T13:49:30;8.70;;;4.88;;
70705;SDS011;59320;52.316;10.870;2023-04-10T13:52:00;6.70;;;4.78;;
70705;SDS011;59320;52.316;10.870;2023-04-10T13:54:27;5.93;;;5.30;;
70705;SDS011;59320;52.316;10.870;2023-04-10T13:56:56;7.85;;;6.03;;
70705;SDS011;59320;52.316;10.870;2023-04-10T13:59:24;7.13;;;6.18;;
70705;SDS011;59320;52.316;10.870;2023-04-10T14:01:52;8.07;;;6.07;;
70705;SDS011;59320;52.316;10.870;2023-04-10T14:04:19;6.20;;;4.70;;
70705;SDS011;59320;52.316;10.870;2023-04-10T14:06:46;7.03;;;5.20;;
70705;SDS011;59320;52.316;10.870;2023-04-10T14:09:15;5.65;;;4.40;;
70705;SDS011;59320;52.316;10.870;2023-04-10T14:11:42;4.63;;;4.03;;
70705;SDS011;59320;52.316;10.870;2023-04-10T14:14:11;5.28;;;4.30;;
70705;SDS011;59320;52.316;10.870;2023-04-10T14:16:38;5.20;;;4.70;;
70705;SDS011;59320;52.316;10.870;2023-04-10T14:19:05;5.80;;;4.15;;
70705;SDS011;59320;52.316;10.870;2023-04-10T14:21:35;6.10;;;4.35;;
70705;SDS011;59320;52.316;10.870;2023-04-10T14:24:04;4.95;;;3.95;;
70705;SDS011;59320;52.316;10.870;2023-04-10T14:26:32;5.43;;;4.60;;
70705;SDS011;59320;52.316;10.870;2023-04-10T14:28:59;5.82;;;5.22;;
70705;SDS011;59320;52.316;10.870;2023-04-10T14:31:27;6.07;;;4.80;;
70705;SDS011;59320;52.316;10.870;2023-04-10T14:33:55;5.70;;;4.93;;
70705;SDS011;59320;52.316;10.870;2023-04-10T14:36:22;6.35;;;4.85;;
70705;SDS011;59320;52.316;10.870;2023-04-10T14:38:49;5.22;;;4.53;;
70705;SDS011;59320;52.316;10.870;2023-04-10T14:41:16;6.80;;;5.60;;
70705;SDS011;59320;52.316;10.870;2023-04-10T14:43:43;7.65;;;5.43;;
70705;SDS011;59320;52.316;10.870;2023-04-10T14:46:13;9.25;;;5.90;;
70705;SDS011;59320;52.316;10.870;2023-04-10T14:48:41;7.22;;;6.10;;
70705;SDS011;59320;52.316;10.870;2023-04-10T14:51:09;7.18;;;5.68;;
70705;SDS011;59320;52.316;10.870;2023-04-10T14:53:37;7.63;;;6.53;;
70705;SDS011;59320;52.316;10.870;2023-04-10T14:56:10;6.38;;;5.60;;
70705;SDS011;59320;52.316;10.870;2023-04-10T14:58:37;7.78;;;5.18;;
70705;SDS011;59320;52.316;10.870;2023-04-10T15:01:07;7.03;;;5.25;;
70705;SDS011;59320;52.316;10.870;2023-04-10T15:03:36;6.78;;;4.95;;